Time;durP1;ratioP1;P1;durP2;ratioP2;P2;SDS_P1;SDS_P2;PMS_P1;PMS_P2;Temp;Humidity;BMP_temperature;BMP_pressure;BME280_temperature;BME280_humidity;BME280_pressure;Samples;Min_cycle;Max_cycle;Signal;HPM_P1;HPM_P2
2023/05/06 00:00:09;;;;;;;;;;;17.80;99.90;18.00;99638.00;;;;334958;29;83408;-93
2023/05/06 00:00:21;;;;;;;;;;;17.80;99.90;18.00;99634.00;;;;335549;29;91401;-94
2023/05/06 00:00:33;;;;;;;;;;;17.80;99.90;18.00;99636.00;;;;336868;28;84086;-94
2023/05/06 00:00:45;;;;;;;;;;;17.80;99.90;17.90;99633.00;;;;335522;29;90150;-91
2023/05/06 00:00:57;;;;;;;;;;;17.80;99.90;17.90;99640.00;;;;338519;28;83365;-92
2023/05/06 00:01:08;;;;;;;;;;;17.80;99.90;18.00;99638.00;;;;336998;28;90367;-93
2023/05/06 00:01:20;;;;;;;;;;;17.80;99.90;18.00;99639.00;;;;335988;29;82453;-92
2023/05/06 00:01:32;;;;;;;;;;;17.80;99.90;17.90;99634.00;;;;339433;28;91933;-93
2023/05/06 00:01:45;;;;;;;;;;;17.80;99.90;18.00;99627.00;;;;337256;28;82679;-92
2023/05/06 00:01:56;;;;;;;;;;;17.80;99.90;18.00;99630.00;;;;336958;28;91272;-95
2023/05/06 00:02:08;;;;;;;;;;;17.80;99.90;18.00;99634.00;;;;338619;28;82592;-94
2023/05/06 00:02:21;;;;;;;;;;;17.80;99.90;18.00;99633.00;;;;337884;28;90130;-93
2023/05/06 00:02:33;;;;;;;;;;;17.80;99.90;18.00;99633.00;;;;338860;28;82453;-92
2023/05/06 00:02:45;;;;;;;;;;;17.80;99.90;18.00;99638.00;;;;338427;28;90362;-92
2023/05/06 00:02:59;;;;;;;;;;;17.80;99.90;18.00;99633.00;;;;338754;28;83206;-94
2023/05/06 00:03:11;;;;;;;;;;;17.80;99.90;18.00;99634.00;;;;337189;28;91446;-92
2023/05/06 00:03:23;;;;;;;;;;;17.80;99.90;18.00;99633.00;;;;337597;28;82548;-93
2023/05/06 00:03:35;;;;;;;;;;;17.80;99.90;18.00;99636.00;;;;336508;28;91150;-93
2023/05/06 00:03:47;;;;;;;;;;;17.80;99.90;17.90;99625.00;;;;337672;28;83430;-93
2023/05/06 00:03:59;;;;;;;;;;;17.80;99.90;17.90;99632.00;;;;337496;28;92015;-93
2023/05/06 00:04:11;;;;;;;;;;;17.80;99.90;18.00;99634.00;;;;337468;28;83636;-93
2023/05/06 00:04:23;;;;;;;;;;;17.80;99.90;18.00;99639.00;;;;338020;28;90263;-92
2023/05/06 00:04:35;;;;;;;;;;;17.80;99.90;18.00;99637.00;;;;338420;28;82477;-92
2023/05/06 00:04:48;;;;;;;;;;;17.80;99.90;18.00;99634.00;;;;336300;29;90259;-93
2023/05/06 00:05:00;;;;;;;;;;;17.80;99.90;18.00;99634.00;;;;337095;28;83483;-91
2023/05/06 00:05:13;;;;;;;;;;;17.80;99.90;17.90;99631.00;;;;339650;28;90760;-94
2023/05/06 00:05:25;;;;;;;;;;;17.80;99.90;17.90;99632.00;;;;339665;28;82510;-95
2023/05/06 00:05:37;;;;;;;;;;;17.80;99.90;17.90;99634.00;;;;336641;29;90251;-95
2023/05/06 00:05:49;;;;;;;;;;;17.80;99.90;17.90;99633.00;;;;338820;28;82622;-94
2023/05/06 00:06:02;;;;;;;;;;;17.80;99.90;17.90;99626.00;;;;338872;28;91172;-94
2023/05/06 00:06:14;;;;;;;;;;;17.80;99.90;18.00;99634.00;;;;336956;28;82946;-94
2023/05/06 00:06:26;;;;;;;;;;;17.80;99.90;18.00;99629.00;;;;338750;28;90347;-95
2023/05/06 00:06:38;;;;;;;;;;;17.80;99.90;18.00;99633.00;;;;339230;28;83325;-95
2023/05/06 00:06:50;;;;;;;;;;;17.80;99.90;17.90;99638.00;;;;338445;28;89982;-94
2023/05/06 00:07:02;;;;;;;;;;;17.80;99.90;17.80;99632.00;;;;339044;28;82500;-94
2023/05/06 00:07:14;;;;;;;;;;;17.80;99.90;17.70;99635.00;;;;337251;28;90857;-94
2023/05/06 00:07:26;;;;;;;;;;;17.80;99.90;17.80;99626.00;;;;338190;28;82568;-94
2023/05/06 00:07:38;;;;;;;;;;;17.70;99.90;17.90;99634.00;;;;338908;28;91014;-93
2023/05/06 00:07:50;;;;;;;;;;;17.70;99.90;17.80;99637.00;;;;336448;28;82627;-93
2023/05/06 00:08:02;;;;;;;;;;;17.80;99.90;17.90;99633.00;;;;339421;28;92458;-95
2023/05/06 00:08:17;;;;;;;;;;;17.70;99.90;17.90;99628.00;;;;337409;28;83707;-90
2023/05/06 00:08:29;;;;;;;;;;;17.80;99.90;17.90;99632.00;;;;336154;28;90347;-89
2023/05/06 00:08:41;;;;;;;;;;;17.70;99.90;17.90;99632.00;;;;338113;28;83330;-89
2023/05/06 00:08:53;;;;;;;;;;;17.70;99.90;17.90;99638.00;;;;336387;28;92310;-90
2023/05/06 00:09:05;;;;;;;;;;;17.80;99.90;17.90;99636.00;;;;335230;29;82664;-90
2023/05/06 00:09:17;;;;;;;;;;;17.80;99.90;17.90;99635.00;;;;338987;28;90718;-90
2023/05/06 00:09:29;;;;;;;;;;;17.80;99.90;18.00;99635.00;;;;337963;28;83552;-91
2023/05/06 00:09:40;;;;;;;;;;;17.80;99.90;17.90;99631.00;;;;336238;28;91526;-90
2023/05/06 00:09:52;;;;;;;;;;;17.80;99.90;17.90;99637.00;;;;337994;28;83437;-90
2023/05/06 00:10:05;;;;;;;;;;;17.70;99.90;17.80;99640.00;;;;335746;28;92237;-89
2023/05/06 00:10:17;;;;;;;;;;;17.80;99.90;17.70;99639.00;;;;336488;28;82531;-89
2023/05/06 00:10:29;;;;;;;;;;;17.70;99.90;17.80;99638.00;;;;339722;28;91019;-90
2023/05/06 00:10:40;;;;;;;;;;;17.70;99.90;17.70;99637.00;;;;336437;28;83568;-89
2023/05/06 00:10:52;;;;;;;;;;;17.70;99.90;17.80;99632.00;;;;338590;28;90262;-90
2023/05/06 00:11:04;;;;;;;;;;;17.70;99.90;17.70;99632.00;;;;336613;28;82566;-88
2023/05/06 00:11:16;;;;;;;;;;;17.70;99.90;17.70;99638.00;;;;336501;28;89246;-88
2023/05/06 00:11:29;;;;;;;;;;;17.70;99.90;17.60;99634.00;;;;341161;28;82919;-88
2023/05/06 00:11:42;;;;;;;;;;;17.60;99.90;17.70;99639.00;;;;336737;28;86920;-89
2023/05/06 00:12:08;;;;;;;;;;;17.60;99.90;17.80;99636.00;;;;338391;28;83437;-89
2023/05/06 00:12:20;;;;;;;;;;;17.60;99.90;17.80;99636.00;;;;339141;28;92818;-89
2023/05/06 00:12:32;;;;;;;;;;;17.60;99.90;17.80;99632.00;;;;335674;29;83358;-89
2023/05/06 00:12:44;;;;;;;;;;;17.60;99.90;17.80;99635.00;;;;338937;28;92119;-89
2023/05/06 00:12:55;;;;;;;;;;;17.60;99.90;17.80;99638.00;;;;338308;28;83385;-89
2023/05/06 00:13:07;;;;;;;;;;;17.60;99.90;17.90;99634.00;;;;334653;29;91332;-89
2023/05/06 00:13:19;;;;;;;;;;;17.70;99.90;17.90;99625.00;;;;339281;28;82613;-89
2023/05/06 00:13:31;;;;;;;;;;;17.70;99.90;17.90;99633.00;;;;337972;28;91232;-89
2023/05/06 00:13:43;;;;;;;;;;;17.70;99.90;17.90;99626.00;;;;337949;28;83476;-89
2023/05/06 00:13:55;;;;;;;;;;;17.70;99.90;17.80;99630.00;;;;338805;28;90766;-89
2023/05/06 00:14:06;;;;;;;;;;;17.60;99.90;17.80;99628.00;;;;337818;28;83348;-90
2023/05/06 00:14:18;;;;;;;;;;;17.60;99.90;17.80;99636.00;;;;336549;28;92503;-89
2023/05/06 00:14:30;;;;;;;;;;;17.60;99.90;17.70;99630.00;;;;337998;28;85350;-89
2023/05/06 00:14:42;;;;;;;;;;;17.60;99.90;17.70;99629.00;;;;336857;28;90988;-89
2023/05/06 00:14:53;;;;;;;;;;;17.60;99.90;17.80;99632.00;;;;337590;28;83619;-88
2023/05/06 00:15:06;;;;;;;;;;;17.60;99.90;17.80;99628.00;;;;337394;28;91679;-88
2023/05/06 00:15:18;;;;;;;;;;;17.60;99.90;17.80;99629.00;;;;336574;28;83336;-88
2023/05/06 00:15:30;;;;;;;;;;;17.60;99.90;17.90;99631.00;;;;340158;28;91586;-89
2023/05/06 00:15:42;;;;;;;;;;;17.60;99.90;17.90;99622.00;;;;337922;28;82423;-88
2023/05/06 00:15:54;;;;;;;;;;;17.60;99.90;17.80;99625.00;;;;336145;28;89129;-87
2023/05/06 00:16:06;;;;;;;;;;;17.60;99.90;17.80;99626.00;;;;337865;28;82391;-88
2023/05/06 00:16:18;;;;;;;;;;;17.60;99.90;17.80;99629.00;;;;336174;28;91332;-89
2023/05/06 00:16:30;;;;;;;;;;;17.60;99.90;17.90;99620.00;;;;339070;28;82791;-88
2023/05/06 00:16:42;;;;;;;;;;;17.60;99.90;17.80;99624.00;;;;336335;28;89092;-88
2023/05/06 00:16:53;;;;;;;;;;;17.60;99.90;17.80;99620.00;;;;335056;28;82685;-89
2023/05/06 00:17:05;;;;;;;;;;;17.60;99.90;17.80;99621.00;;;;338666;28;90607;-88
2023/05/06 00:17:17;;;;;;;;;;;17.60;99.90;17.80;99628.00;;;;335988;28;83385;-88
2023/05/06 00:17:29;;;;;;;;;;;17.60;99.90;17.80;99625.00;;;;336048;28;90372;-88
2023/05/06 00:17:41;;;;;;;;;;;17.60;99.90;17.90;99633.00;;;;339293;28;83945;-89
2023/05/06 00:17:54;;;;;;;;;;;17.60;99.90;17.90;99624.00;;;;337458;28;90443;-87
2023/05/06 00:18:06;;;;;;;;;;;17.70;99.90;17.90;99620.00;;;;336462;28;82555;-89
2023/05/06 00:18:21;;;;;;;;;;;17.70;99.90;17.90;99625.00;;;;338548;28;92240;-88
2023/05/06 00:18:32;;;;;;;;;;;17.70;99.90;17.80;99628.00;;;;336862;28;82579;-89
2023/05/06 00:18:44;;;;;;;;;;;17.60;99.90;17.90;99630.00;;;;335007;28;91608;-89
2023/05/06 00:18:56;;;;;;;;;;;17.60;99.90;17.90;99625.00;;;;338144;28;83555;-89
2023/05/06 00:19:08;;;;;;;;;;;17.70;99.90;17.90;99624.00;;;;337335;28;90786;-89
2023/05/06 00:19:19;;;;;;;;;;;17.60;99.90;17.80;99627.00;;;;339332;28;82609;-89
2023/05/06 00:19:31;;;;;;;;;;;17.70;99.90;17.80;99629.00;;;;334889;28;89455;-89
2023/05/06 00:19:43;;;;;;;;;;;17.70;99.90;17.70;99624.00;;;;338147;28;82538;-89
2023/05/06 00:19:57;;;;;;;;;;;17.70;99.90;17.70;99622.00;;;;338488;28;91422;-89
2023/05/06 00:20:09;;;;;;;;;;;17.60;99.90;17.70;99632.00;;;;337800;28;82499;-89
2023/05/06 00:20:21;;;;;;;;;;;17.60;99.90;17.80;99622.00;;;;336204;28;90390;-89
2023/05/06 00:20:33;;;;;;;;;;;17.60;99.90;17.80;99621.00;;;;336457;28;83529;-88
2023/05/06 00:20:45;;;;;;;;;;;17.70;99.90;17.80;99629.00;;;;337681;28;90349;-89
2023/05/06 00:20:57;;;;;;;;;;;17.60;99.90;17.70;99630.00;;;;337989;28;82569;-89
2023/05/06 00:21:08;;;;;;;;;;;17.60;99.90;17.60;99621.00;;;;334682;29;91692;-89
2023/05/06 00:21:20;;;;;;;;;;;17.60;99.90;17.60;99618.00;;;;337043;28;83513;-89
2023/05/06 00:21:32;;;;;;;;;;;17.60;99.90;17.60;99624.00;;;;337254;28;91235;-88
2023/05/06 00:21:44;;;;;;;;;;;17.60;99.90;17.60;99631.00;;;;336679;28;82699;-88
2023/05/06 00:21:56;;;;;;;;;;;17.60;99.90;17.60;99624.00;;;;339184;28;88770;-88
2023/05/06 00:22:08;;;;;;;;;;;17.50;99.90;17.70;99627.00;;;;340763;28;83348;-88
2023/05/06 00:22:19;;;;;;;;;;;17.60;99.90;17.70;99624.00;;;;335753;29;92084;-89
2023/05/06 00:22:31;;;;;;;;;;;17.50;99.90;17.70;99629.00;;;;337208;28;82693;-89
2023/05/06 00:22:43;;;;;;;;;;;17.60;99.90;17.80;99625.00;;;;339205;28;92640;-88
2023/05/06 00:22:55;;;;;;;;;;;17.50;99.90;17.80;99621.00;;;;336286;29;82553;-89
2023/05/06 00:23:07;;;;;;;;;;;17.60;99.90;17.80;99623.00;;;;337118;28;91374;-89
2023/05/06 00:23:18;;;;;;;;;;;17.60;99.90;17.80;99627.00;;;;340369;28;82639;-89
2023/05/06 00:23:30;;;;;;;;;;;17.60;99.90;17.80;99631.00;;;;339155;28;88685;-89
2023/05/06 00:23:42;;;;;;;;;;;17.60;99.90;17.80;99624.00;;;;340959;28;82515;-88
2023/05/06 00:23:54;;;;;;;;;;;17.60;99.90;17.80;99626.00;;;;337241;28;91119;-88
2023/05/06 00:24:06;;;;;;;;;;;17.60;99.90;17.70;99624.00;;;;337066;28;82356;-88
2023/05/06 00:24:18;;;;;;;;;;;17.60;99.90;17.70;99630.00;;;;336104;28;92513;-88
2023/05/06 00:24:29;;;;;;;;;;;17.60;99.90;17.70;99622.00;;;;338714;28;82572;-87
2023/05/06 00:24:41;;;;;;;;;;;17.60;99.90;17.70;99625.00;;;;339129;28;91032;-89
2023/05/06 00:24:53;;;;;;;;;;;17.60;99.90;17.70;99627.00;;;;340051;28;83518;-88
2023/05/06 00:25:05;;;;;;;;;;;17.60;99.90;17.70;99615.00;;;;337869;28;91892;-88
2023/05/06 00:25:17;;;;;;;;;;;17.60;99.90;17.70;99625.00;;;;333226;29;82547;-88
2023/05/06 00:25:29;;;;;;;;;;;17.60;99.90;17.70;99621.00;;;;337773;28;91502;-88
2023/05/06 00:25:41;;;;;;;;;;;17.60;99.90;17.70;99628.00;;;;337657;28;83575;-88
2023/05/06 00:25:53;;;;;;;;;;;17.60;99.90;17.70;99621.00;;;;337689;28;90686;-89
2023/05/06 00:26:05;;;;;;;;;;;17.50;99.90;17.80;99633.00;;;;336404;28;83372;-89
2023/05/06 00:26:17;;;;;;;;;;;17.60;99.90;17.80;99620.00;;;;336288;28;91200;-90
2023/05/06 00:26:29;;;;;;;;;;;17.60;99.90;17.80;99628.00;;;;340637;28;83960;-88
2023/05/06 00:26:41;;;;;;;;;;;17.50;99.90;17.70;99625.00;;;;338876;28;90289;-88
2023/05/06 00:26:53;;;;;;;;;;;17.50;99.90;17.70;99622.00;;;;337650;28;82644;-88
2023/05/06 00:27:04;;;;;;;;;;;17.60;99.90;17.80;99626.00;;;;337538;28;90636;-89
2023/05/06 00:27:16;;;;;;;;;;;17.60;99.90;17.80;99625.00;;;;335479;28;83496;-88
2023/05/06 00:27:28;;;;;;;;;;;17.50;99.90;17.80;99621.00;;;;338789;28;91245;-87
2023/05/06 00:27:40;;;;;;;;;;;17.50;99.90;17.80;99619.00;;;;337722;28;82614;-87
2023/05/06 00:27:52;;;;;;;;;;;17.50;99.90;17.70;99627.00;;;;337087;28;90556;-88
2023/05/06 00:28:03;;;;;;;;;;;17.60;99.90;17.70;99620.00;;;;336596;28;83429;-88
2023/05/06 00:28:15;;;;;;;;;;;17.60;99.90;17.70;99621.00;;;;336267;28;91532;-88
2023/05/06 00:28:27;;;;;;;;;;;17.60;99.90;17.70;99629.00;;;;337644;28;82535;-88
2023/05/06 00:28:39;;;;;;;;;;;17.50;99.90;17.70;99622.00;;;;336446;28;91296;-88
2023/05/06 00:28:51;;;;;;;;;;;17.50;99.90;17.70;99631.00;;;;337283;28;83282;-87
2023/05/06 00:29:03;;;;;;;;;;;17.60;99.90;17.70;99619.00;;;;337849;28;91794;-87
2023/05/06 00:29:15;;;;;;;;;;;17.60;99.90;17.70;99624.00;;;;337779;28;83439;-88
2023/05/06 00:29:27;;;;;;;;;;;17.50;99.90;17.70;99625.00;;;;338269;28;88226;-88
2023/05/06 00:29:38;;;;;;;;;;;17.50;99.90;17.70;99619.00;;;;336742;28;82378;-88
2023/05/06 00:29:50;;;;;;;;;;;17.60;99.90;17.80;99626.00;;;;335647;28;90355;-88
2023/05/06 00:30:03;;;;;;;;;;;17.50;99.90;17.80;99616.00;;;;338527;28;83583;-88
2023/05/06 00:30:14;;;;;;;;;;;17.50;99.90;17.90;99609.00;;;;335843;28;91158;-88
2023/05/06 00:30:26;;;;;;;;;;;17.50;99.90;17.90;99619.00;;;;338180;28;82536;-88
2023/05/06 00:30:38;;;;;;;;;;;17.60;99.90;17.90;99623.00;;;;337138;28;90924;-88
2023/05/06 00:30:50;;;;;;;;;;;17.60;99.90;17.80;99618.00;;;;337445;28;83450;-87
2023/05/06 00:31:02;;;;;;;;;;;17.50;99.90;17.80;99615.00;;;;337875;28;91481;-88
2023/05/06 00:31:14;;;;;;;;;;;17.50;99.90;17.70;99628.00;;;;336400;28;83542;-88
2023/05/06 00:31:25;;;;;;;;;;;17.50;99.90;17.70;99614.00;;;;336043;28;91545;-88
2023/05/06 00:31:37;;;;;;;;;;;17.60;99.90;17.70;99620.00;;;;338034;28;82524;-89
2023/05/06 00:31:49;;;;;;;;;;;17.50;99.90;17.80;99625.00;;;;338432;28;90431;-88
2023/05/06 00:32:01;;;;;;;;;;;17.60;99.90;17.80;99618.00;;;;334991;29;83346;-88
2023/05/06 00:32:13;;;;;;;;;;;17.60;99.90;17.80;99614.00;;;;334910;29;93154;-88
2023/05/06 00:32:25;;;;;;;;;;;17.60;99.90;17.90;99624.00;;;;337703;28;83558;-88
2023/05/06 00:32:37;;;;;;;;;;;17.50;99.90;17.90;99622.00;;;;336215;28;91542;-89
2023/05/06 00:32:48;;;;;;;;;;;17.60;99.90;17.90;99618.00;;;;338935;28;83481;-88
2023/05/06 00:33:00;;;;;;;;;;;17.60;99.90;17.90;99628.00;;;;337700;28;88721;-88
2023/05/06 00:33:12;;;;;;;;;;;17.60;99.90;17.90;99618.00;;;;336358;28;83588;-88
2023/05/06 00:33:25;;;;;;;;;;;17.60;99.90;17.90;99626.00;;;;336972;28;89607;-89
2023/05/06 00:33:37;;;;;;;;;;;17.60;99.90;17.90;99622.00;;;;337710;28;83268;-87
2023/05/06 00:33:48;;;;;;;;;;;17.60;99.90;17.80;99629.00;;;;339518;28;91225;-90
2023/05/06 00:34:00;;;;;;;;;;;17.60;99.90;17.70;99614.00;;;;336397;28;83520;-90
2023/05/06 00:34:12;;;;;;;;;;;17.60;99.90;17.60;99622.00;;;;334498;28;92660;-90
2023/05/06 00:34:24;;;;;;;;;;;17.60;99.90;17.60;99622.00;;;;337992;28;82518;-91
2023/05/06 00:34:36;;;;;;;;;;;17.60;99.90;17.50;99629.00;;;;333785;29;91728;-90
2023/05/06 00:34:47;;;;;;;;;;;17.50;99.90;17.60;99628.00;;;;336972;28;83460;-89
2023/05/06 00:35:00;;;;;;;;;;;17.50;99.90;17.60;99624.00;;;;337627;28;87585;-90
2023/05/06 00:35:11;;;;;;;;;;;17.50;99.90;17.60;99622.00;;;;336699;28;83474;-90
2023/05/06 00:35:23;;;;;;;;;;;17.50;99.90;17.60;99625.00;;;;336529;28;91367;-94
2023/05/06 00:35:35;;;;;;;;;;;17.50;99.90;17.60;99632.00;;;;334982;29;82603;-93
2023/05/06 00:35:47;;;;;;;;;;;17.50;99.90;17.50;99625.00;;;;334838;28;91739;-94
2023/05/06 00:35:59;;;;;;;;;;;17.50;99.90;17.60;99626.00;;;;337992;28;82511;-94
2023/05/06 00:36:11;;;;;;;;;;;17.50;99.90;17.50;99625.00;;;;333437;28;91672;-93
2023/05/06 00:36:23;;;;;;;;;;;17.50;99.90;17.50;99623.00;;;;336795;28;82682;-95
2023/05/06 00:36:35;;;;;;;;;;;17.50;99.90;17.40;99634.00;;;;337501;28;90215;-95
2023/05/06 00:36:47;;;;;;;;;;;17.50;99.90;17.40;99630.00;;;;337840;28;82517;-94
2023/05/06 00:36:59;;;;;;;;;;;17.50;99.90;17.40;99630.00;;;;335984;28;90427;-94
2023/05/06 00:37:11;;;;;;;;;;;17.40;99.90;17.60;99634.00;;;;336539;28;83659;-95
2023/05/06 00:37:22;;;;;;;;;;;17.40;99.90;17.70;99628.00;;;;336024;28;90478;-95
2023/05/06 00:37:34;;;;;;;;;;;17.40;99.90;17.70;99623.00;;;;338162;28;83321;-94
2023/05/06 00:37:46;;;;;;;;;;;17.40;99.90;17.60;99628.00;;;;337592;28;91369;-94
2023/05/06 00:38:09;;;;;;;;;;;17.50;99.90;17.50;99637.00;;;;339051;28;82564;-95
2023/05/06 00:38:20;;;;;;;;;;;17.40;99.90;17.50;99625.00;;;;334711;28;91514;-94
2023/05/06 00:38:32;;;;;;;;;;;17.40;99.90;17.40;99625.00;;;;336754;28;83520;-95
2023/05/06 00:38:44;;;;;;;;;;;17.40;99.90;17.40;99626.00;;;;337632;28;91334;-94
2023/05/06 00:38:56;;;;;;;;;;;17.40;99.90;17.50;99626.00;;;;335722;28;82478;-94
2023/05/06 00:39:08;;;;;;;;;;;17.40;99.90;17.50;99638.00;;;;336222;28;90530;-94
2023/05/06 00:39:21;;;;;;;;;;;17.40;99.90;17.60;99635.00;;;;335478;29;82522;-95
2023/05/06 00:39:33;;;;;;;;;;;17.40;99.90;17.60;99622.00;;;;338974;28;91508;-92
2023/05/06 00:39:45;;;;;;;;;;;17.40;99.90;17.60;99626.00;;;;339316;28;82661;-92
2023/05/06 00:39:57;;;;;;;;;;;17.40;99.90;17.60;99623.00;;;;337724;28;91250;-92
2023/05/06 00:40:09;;;;;;;;;;;17.40;99.90;17.70;99622.00;;;;336847;28;82562;-92
2023/05/06 00:40:21;;;;;;;;;;;17.40;99.90;17.70;99627.00;;;;336292;28;91059;-92
2023/05/06 00:40:33;;;;;;;;;;;17.40;99.90;17.80;99621.00;;;;338989;28;82650;-92
2023/05/06 00:40:44;;;;;;;;;;;17.40;99.90;17.80;99622.00;;;;337797;28;89740;-92
2023/05/06 00:40:56;;;;;;;;;;;17.40;99.90;17.80;99622.00;;;;337261;28;83345;-92
2023/05/06 00:41:08;;;;;;;;;;;17.40;99.90;17.70;99629.00;;;;336761;28;91928;-92
2023/05/06 00:41:20;;;;;;;;;;;17.40;99.90;17.70;99624.00;;;;338488;28;82390;-92
2023/05/06 00:41:32;;;;;;;;;;;17.50;99.90;17.70;99629.00;;;;338681;28;90225;-95
2023/05/06 00:41:44;;;;;;;;;;;17.50;99.90;17.70;99628.00;;;;336528;28;82448;-94
2023/05/06 00:42:02;;;;;;;;;;;17.50;99.90;17.80;99627.00;;;;337750;28;90391;-94
2023/05/06 00:42:14;;;;;;;;;;;17.50;99.90;17.80;99623.00;;;;336748;28;83478;-94
2023/05/06 00:42:26;;;;;;;;;;;17.50;99.90;17.70;99626.00;;;;334986;29;92787;-95
2023/05/06 00:42:38;;;;;;;;;;;17.50;99.90;17.80;99611.00;;;;336745;28;83605;-95
2023/05/06 00:42:50;;;;;;;;;;;17.50;99.90;17.80;99623.00;;;;335225;29;90500;-95
2023/05/06 00:43:02;;;;;;;;;;;17.50;99.90;17.70;99622.00;;;;334097;29;83382;-94
2023/05/06 00:43:14;;;;;;;;;;;17.50;99.90;17.70;99615.00;;;;334837;29;90422;-92
2023/05/06 00:43:27;;;;;;;;;;;17.50;99.90;17.70;99615.00;;;;331706;29;83295;-92
2023/05/06 00:43:39;;;;;;;;;;;17.50;99.90;17.70;99619.00;;;;334913;29;91627;-91
2023/05/06 00:43:51;;;;;;;;;;;17.50;99.90;17.70;99621.00;;;;338084;28;83322;-88
2023/05/06 00:44:03;;;;;;;;;;;17.50;99.90;17.70;99615.00;;;;337643;28;91711;-89
2023/05/06 00:44:15;;;;;;;;;;;17.50;99.90;17.80;99613.00;;;;339331;28;83343;-89
2023/05/06 00:44:30;;;;;;;;;;;17.50;99.90;17.80;99621.00;;;;336276;28;92680;-88
2023/05/06 00:44:42;;;;;;;;;;;17.50;99.90;17.90;99621.00;;;;335524;29;82606;-88
2023/05/06 00:44:54;;;;;;;;;;;17.50;99.90;17.80;99609.00;;;;339003;28;90235;-89
2023/05/06 00:45:06;;;;;;;;;;;17.50;99.90;17.70;99618.00;;;;335345;29;83393;-89
2023/05/06 00:45:19;;;;;;;;;;;17.50;99.90;17.70;99613.00;;;;336372;28;91437;-89
2023/05/06 00:45:31;;;;;;;;;;;17.50;99.90;17.80;99621.00;;;;335304;29;82509;-88
2023/05/06 00:45:43;;;;;;;;;;;17.50;99.90;17.80;99628.00;;;;338837;28;91447;-89
2023/05/06 00:45:55;;;;;;;;;;;17.50;99.90;17.80;99614.00;;;;336764;28;82384;-90
2023/05/06 00:46:07;;;;;;;;;;;17.50;99.90;17.80;99618.00;;;;337528;28;89762;-89
2023/05/06 00:46:19;;;;;;;;;;;17.50;99.90;17.80;99607.00;;;;338018;28;82627;-89
2023/05/06 00:46:31;;;;;;;;;;;17.50;99.90;17.80;99614.00;;;;337693;28;91005;-88
2023/05/06 00:46:43;;;;;;;;;;;17.50;99.90;17.80;99611.00;;;;339473;28;83395;-92
2023/05/06 00:46:55;;;;;;;;;;;17.50;99.90;17.80;99610.00;;;;337592;28;90132;-89
2023/05/06 00:47:07;;;;;;;;;;;17.50;99.90;17.90;99610.00;;;;336665;28;83488;-90
2023/05/06 00:47:20;;;;;;;;;;;17.50;99.90;17.90;99613.00;;;;338945;28;90217;-90
2023/05/06 00:47:31;;;;;;;;;;;17.60;99.90;17.80;99608.00;;;;337834;28;83391;-89
2023/05/06 00:47:43;;;;;;;;;;;17.60;99.90;17.90;99610.00;;;;340259;28;91336;-89
2023/05/06 00:47:56;;;;;;;;;;;17.60;99.90;17.80;99617.00;;;;335411;29;83437;-89
2023/05/06 00:48:08;;;;;;;;;;;17.50;99.90;17.80;99611.00;;;;333879;29;91834;-88
2023/05/06 00:48:19;;;;;;;;;;;17.50;99.90;17.70;99613.00;;;;338463;28;82798;-88
2023/05/06 00:48:31;;;;;;;;;;;17.60;99.90;17.80;99606.00;;;;337464;28;92337;-89
2023/05/06 00:48:43;;;;;;;;;;;17.50;99.90;17.70;99615.00;;;;340673;28;83405;-89
2023/05/06 00:48:55;;;;;;;;;;;17.50;99.90;17.70;99611.00;;;;336379;28;90960;-89
2023/05/06 00:49:06;;;;;;;;;;;17.50;99.90;17.80;99613.00;;;;339358;28;82586;-89
2023/05/06 00:49:18;;;;;;;;;;;17.50;99.90;17.80;99614.00;;;;337745;28;89747;-89
2023/05/06 00:49:30;;;;;;;;;;;17.50;99.90;17.90;99608.00;;;;336757;28;82318;-89
2023/05/06 00:49:42;;;;;;;;;;;17.60;99.90;17.80;99618.00;;;;338808;28;91539;-89
2023/05/06 00:49:54;;;;;;;;;;;17.60;99.90;17.80;99611.00;;;;336711;28;83201;-89
2023/05/06 00:50:06;;;;;;;;;;;17.50;99.90;17.90;99614.00;;;;337680;28;89695;-89
2023/05/06 00:50:18;;;;;;;;;;;17.50;99.90;17.80;99613.00;;;;336348;28;83567;-89
2023/05/06 00:50:31;;;;;;;;;;;17.50;99.90;17.90;99607.00;;;;336224;28;92451;-89
2023/05/06 00:50:43;;;;;;;;;;;17.50;99.90;17.90;99614.00;;;;337956;28;83752;-88
2023/05/06 00:50:55;;;;;;;;;;;17.50;99.90;17.90;99615.00;;;;336333;28;89953;-88
2023/05/06 00:51:07;;;;;;;;;;;17.60;99.90;17.90;99608.00;;;;339349;28;82619;-89
2023/05/06 00:51:19;;;;;;;;;;;17.50;99.90;17.90;99605.00;;;;337703;28;90680;-89
2023/05/06 00:51:31;;;;;;;;;;;17.60;99.90;17.90;99606.00;;;;338068;28;83376;-89
2023/05/06 00:51:45;;;;;;;;;;;17.60;99.90;17.70;99612.00;;;;337626;28;89965;-89
2023/05/06 00:51:57;;;;;;;;;;;17.60;99.90;17.80;99612.00;;;;338050;28;83459;-89
2023/05/06 00:52:09;;;;;;;;;;;17.50;99.90;17.70;99613.00;;;;337649;28;90420;-89
2023/05/06 00:52:20;;;;;;;;;;;17.50;99.90;17.70;99610.00;;;;336646;28;83399;-89
2023/05/06 00:52:32;;;;;;;;;;;17.50;99.90;17.80;99609.00;;;;336304;28;91474;-89
2023/05/06 00:52:44;;;;;;;;;;;17.50;99.90;17.80;99609.00;;;;338091;28;82633;-89
2023/05/06 00:52:57;;;;;;;;;;;17.50;99.90;17.80;99612.00;;;;336307;28;90838;-90
2023/05/06 00:53:09;;;;;;;;;;;17.50;99.90;17.80;99612.00;;;;339323;28;83294;-90
2023/05/06 00:53:21;;;;;;;;;;;17.50;99.90;17.90;99623.00;;;;336047;28;90416;-89
2023/05/06 00:53:33;;;;;;;;;;;17.50;99.90;17.80;99606.00;;;;338077;28;83418;-89
2023/05/06 00:53:47;;;;;;;;;;;17.60;99.90;17.80;99610.00;;;;340230;28;90317;-89
2023/05/06 00:54:00;;;;;;;;;;;17.50;99.90;17.80;99606.00;;;;338063;28;83375;-90
2023/05/06 00:54:11;;;;;;;;;;;17.50;99.90;17.90;99609.00;;;;337414;28;90083;-90
2023/05/06 00:54:24;;;;;;;;;;;17.50;99.90;17.90;99611.00;;;;335263;28;83553;-89
2023/05/06 00:54:36;;;;;;;;;;;17.50;99.90;17.90;99613.00;;;;334932;29;92170;-90
2023/05/06 00:54:48;;;;;;;;;;;17.50;99.90;17.90;99612.00;;;;338046;28;83560;-90
2023/05/06 00:55:00;;;;;;;;;;;17.60;99.90;17.90;99610.00;;;;336366;28;90763;-89
2023/05/06 00:55:11;;;;;;;;;;;17.60;99.90;17.90;99611.00;;;;339411;28;82586;-89
2023/05/06 00:55:23;;;;;;;;;;;17.60;99.90;17.90;99606.00;;;;336251;28;91080;-90
2023/05/06 00:55:36;;;;;;;;;;;17.60;99.90;17.90;99602.00;;;;336765;28;83387;-90
2023/05/06 00:55:49;;;;;;;;;;;17.60;99.90;17.90;99605.00;;;;337577;28;90839;-89
2023/05/06 00:56:01;;;;;;;;;;;17.60;99.90;17.90;99605.00;;;;333652;29;82865;-90
2023/05/06 00:56:13;;;;;;;;;;;17.60;99.90;17.80;99606.00;;;;337664;28;89058;-89
2023/05/06 00:56:25;;;;;;;;;;;17.60;99.90;17.80;99608.00;;;;338099;28;82638;-90
2023/05/06 00:56:36;;;;;;;;;;;17.60;99.90;17.90;99603.00;;;;333561;29;92536;-91
2023/05/06 00:56:48;;;;;;;;;;;17.60;99.90;17.90;99603.00;;;;337965;28;83486;-90
2023/05/06 00:57:01;;;;;;;;;;;17.60;99.90;17.70;99605.00;;;;334932;29;91587;-90
2023/05/06 00:57:13;;;;;;;;;;;17.60;99.90;17.70;99604.00;;;;336020;28;82679;-90
2023/05/06 00:57:25;;;;;;;;;;;17.60;99.90;17.70;99602.00;;;;338773;28;91549;-90
2023/05/06 00:57:38;;;;;;;;;;;17.60;99.90;17.80;99606.00;;;;333984;29;83547;-89
2023/05/06 00:57:51;;;;;;;;;;;17.50;99.90;17.90;99605.00;;;;334948;29;91701;-90
2023/05/06 00:58:03;;;;;;;;;;;17.60;99.90;17.80;99602.00;;;;336506;28;83959;-90
2023/05/06 00:58:14;;;;;;;;;;;17.60;99.90;17.80;99610.00;;;;334911;28;90500;-90
2023/05/06 00:58:26;;;;;;;;;;;17.60;99.90;17.90;99602.00;;;;335329;29;83344;-90
2023/05/06 00:58:38;;;;;;;;;;;17.60;99.90;17.90;99595.00;;;;337550;28;92393;-90
2023/05/06 00:58:50;;;;;;;;;;;17.60;99.90;17.90;99605.00;;;;338013;28;82686;-90
2023/05/06 00:59:03;;;;;;;;;;;17.60;99.90;17.90;99610.00;;;;333605;29;91355;-90
2023/05/06 00:59:14;;;;;;;;;;;17.60;99.90;17.80;99602.00;;;;335381;29;82374;-90
2023/05/06 00:59:26;;;;;;;;;;;17.60;99.90;17.80;99600.00;;;;336257;28;91392;-90
2023/05/06 00:59:38;;;;;;;;;;;17.60;99.90;17.90;99598.00;;;;337995;28;83212;-90
2023/05/06 00:59:50;;;;;;;;;;;17.60;99.90;17.80;99613.00;;;;338811;28;90295;-90
2023/05/06 01:00:03;;;;;;;;;;;17.60;99.90;17.80;99605.00;;;;332876;29;83605;-91